Flight Track Log - Related Links

Times and Time Zones

All times are in EDT time to prevent confusion due to time zone crossing. See the CES2368 flight status page for this flight to view local times or setup timezone preferences in your user account.

Time Position Orientation Groundspeed Altitude Reporting Facility
EDT Latitude Longitude Course Direction KTS MPH feet Rate Location/Type
Thu 06:22:00 AM 33.2283 104.7938 68° East  Level Estimated
Thu 06:23:00 AM 33.2588 104.8867 69° East  Level Estimated
Thu 06:24:00 AM 33.2892 104.9798 69° East  Level Estimated
Thu 06:25:00 AM 33.3196 105.0729 69° East  Level Estimated
Thu 06:26:00 AM 33.3499 105.1661 69° East  Level Estimated
Thu 06:27:00 AM 33.3801 105.2593 69° East  Level Estimated
Thu 06:28:00 AM 33.4102 105.3526 69° East  Level Estimated
Thu 06:29:00 AM 33.4403 105.4460 69° East  Level Estimated
Thu 06:30:00 AM 33.4703 105.5395 69° East  Level Estimated
Thu 06:31:00 AM 33.5002 105.6330 69° East  Level Estimated
Thu 06:32:00 AM 33.5301 105.7265 69° East  Level Estimated
Thu 06:33:00 AM 33.5599 105.8202 69° East  Level Estimated
Thu 06:34:00 AM 33.5896 105.9138 69° East  Level Estimated
Thu 06:35:00 AM 33.6193 106.0076 69° East  Level Estimated
Thu 06:36:00 AM 33.6489 106.1014 69° East  Level Estimated
Thu 06:37:00 AM 33.6784 106.1953 69° East  Level Estimated
Thu 06:38:00 AM 33.7078 106.2893 69° East  Level Estimated
Thu 06:39:00 AM 33.7372 106.3833 69° East  Level Estimated
Thu 06:40:00 AM 33.7665 106.4774 69° East  Level Estimated
Thu 06:41:00 AM 33.7957 106.5715 69° East  Level Estimated
Thu 06:42:00 AM 33.8249 106.6657 70° East  Level Estimated
Thu 06:43:00 AM 33.8540 106.7600 70° East  Level Estimated
Thu 06:44:00 AM 33.8830 106.8544 70° East  Level Estimated
Thu 06:45:00 AM 33.9119 106.9488 70° East  Level Estimated
Thu 06:46:00 AM 33.9408 107.0432 70° East  Level Estimated
Thu 06:47:00 AM 33.9696 107.1378 70° East  Level Estimated
Thu 06:48:00 AM 33.9983 107.2324 70° East  Level Estimated
Thu 06:49:00 AM 34.0270 107.3270 70° East  Level Estimated
Thu 06:50:00 AM 34.0555 107.4218 70° East  Level Estimated
Thu 06:51:00 AM 34.0841 107.5165 70° East  Level Estimated
Thu 06:52:00 AM 34.1125 107.6114 70° East  Level Estimated
Thu 06:53:00 AM 34.1409 107.7063 70° East  Level Estimated
Thu 06:54:00 AM 34.1691 107.8013 70° East  Level Estimated
Thu 06:55:00 AM 34.1974 107.8963 70° East  Level Estimated
Thu 06:56:00 AM 34.2255 107.9914 70° East  Level Estimated
Thu 06:57:00 AM 34.2536 108.0866 70° East  Level Estimated
Thu 06:58:00 AM 34.2816 108.1818 70° East  Level Estimated
Thu 06:59:00 AM 34.3095 108.2771 70° East  Level Estimated
Thu 07:00:00 AM 34.3373 108.3725 70° East  Level Estimated
Thu 07:01:00 AM 34.3651 108.4679 71° East  Level Estimated
Thu 07:02:00 AM 34.3928 108.5634 71° East  Level Estimated
Thu 07:03:00 AM 34.4204 108.6590 71° East  Level Estimated
Thu 07:04:00 AM 34.4471 108.7516 71° East  Level Estimated
Thu 07:05:00 AM 34.4471 108.7516 North  Level Estimated
Thu 07:06:00 AM 34.4471 108.7516 North  Level Estimated
Thu 07:07:00 AM 34.4471 108.7516 North  Level Estimated
Thu 07:08:00 AM 34.4471 108.7516 North  Level Estimated
Thu 07:09:00 AM 34.4471 108.7516 North  Level Estimated
Thu 07:10:00 AM 34.4471 108.7516 North  Level Estimated
Thu 07:11:00 AM 34.4471 108.7516 North  Level Estimated
Thu 07:12:00 AM 34.4471 108.7516 North  Level Estimated
Thu 07:13:00 AM 34.4471 108.7516 North  Level Estimated
Thu 07:14:00 AM 34.4471 108.7516 North  Level Estimated
Thu 07:15:00 AM 34.4471 108.7516 North  Level Estimated
Thu 07:16:00 AM 34.4471 108.7516 North  Level Estimated
Thu 07:17:00 AM 34.4471 108.7516 North  Level Estimated
Thu 07:18:00 AM 34.4471 108.7516 North  Level Estimated
Thu 07:19:00 AM 34.4471 108.7516 North  Level Estimated
Thu 07:20:00 AM 34.4471 108.7516 North  Level Estimated
Thu 07:21:00 AM 34.4471 108.7516 North  Level Estimated
Thu 07:22:00 AM 34.4471 108.7516 North  Level Estimated
Thu 07:23:00 AM 34.4471 108.7516 North  Level Estimated

Login

Don't have an account? Register now (free) for customized features, flight alerts, and more!